Currently 53°F in Hemet, California, USA
53°F
54°F / 51°F
calm
0.00"
Saturday, January 25, 2020 5:26 AM PST

Hemet, California Weather Summary
Last 36 Hours

Temperature Winds Hourly Humidity Dewpoint
Time Report Norm Report Norm Max Gusts Precip. Rpt. Norm Rpt. Norm Pressure
1Sat 05:26 AM  52.9°F  48°F  calm  1 mph  none  0.00"  34%  53%  24°F  31°F  30.05"
Sat 05:00 AM  52.0°F  48°F  calm  1 mph  none  0.00"  36%  52%  25°F  31°F  30.03"
Sat 04:00 AM  51.3°F  48°F  calm  1 mph  none  0.00"  39%  53%  26°F  31°F  30.03"
3Sat 03:45 AM  50.5°F  49°F  calm  1 mph  none  ----  42%  53%  27°F  31°F  30.03"
Sat 03:00 AM  52.2°F  49°F  calm  1 mph  none  0.00"  40%  53%  28°F  32°F  30.04"
Sat 02:00 AM  53.2°F  49°F  calm  1 mph  none  0.00"  41%  53%  29°F  32°F  30.05"
Sat 01:00 AM  52.5°F  49°F  calm  1 mph  none  0.00"  46%  52%  31°F  32°F  30.04"
2Sat 12:38 AM  53.6°F  50°F  calm  1 mph  none  ----  43%  53%  31°F  32°F  30.05"
Sat 12:00 AM  52.5°F  50°F  calm  1 mph  none  0.00"  48%  53%  33°F  33°F  30.05"
Fri 11:00 PM  53.6°F  50°F  calm  1 mph  none  0.00"  49%  53%  34°F  33°F  30.06"
Fri 10:00 PM  53.8°F  51°F  calm  1 mph  none  0.00"  50%  53%  35°F  33°F  30.06"
Fri 09:00 PM  54.3°F  51°F  calm  1 mph  none  0.00"  47%  52%  34°F  33°F  30.06"
Fri 08:00 PM  54.7°F  52°F  calm  1 mph  none  0.00"  46%  51%  33°F  34°F  30.04"
Fri 07:00 PM  56.3°F  54°F  calm  1 mph  none  0.00"  46%  49%  35°F  34°F  30.03"
Fri 06:00 PM  60.6°F  56°F  calm  1 mph  none  0.00"  46%  47%  39°F  35°F  30.01"
Fri 05:00 PM  67.5°F  60°F  calm  1 mph  none  0.00"  31%  42%  35°F  36°F  29.99"
Fri 04:00 PM  73.9°F  63°F  calm  1 mph  5 mph  0.00"  22%  37%  31°F  35°F  29.98"
Fri 03:00 PM  74.5°F  64°F  1 mph W  2 mph  7 mph  0.00"  22%  35%  32°F  35°F  29.99"
Fri 02:00 PM  73.2°F  64°F  2 mph SW  2 mph  8 mph  0.00"  19%  36%  27°F  35°F  30.00"
Fri 01:00 PM  70.9°F  63°F  3 mph W  2 mph  7 mph  0.00"  27%  37%  34°F  35°F  30.01"
Fri 12:00 PM  68.7°F  61°F  calm  2 mph  3 mph  0.00"  33%  40%  37°F  36°F  30.03"
Fri 11:00 AM  65.1°F  59°F  calm  1 mph  3 mph  0.00"  38%  43%  38°F  36°F  30.06"
Fri 10:00 AM  63.1°F  57°F  calm  1 mph  none  0.00"  48%  47%  42°F  36°F  30.06"
Fri 09:00 AM  61.3°F  55°F  calm  calm  5 mph  0.00"  38%  48%  34°F  35°F  30.07"
Fri 08:00 AM  53.2°F  50°F  calm  calm  none  0.00"  48%  51%  33°F  32°F  30.05"
Fri 07:00 AM  50.2°F  48°F  calm  1 mph  none  0.00"  46%  52%  29°F  31°F  30.07"
Fri 06:00 AM  51.1°F  48°F  calm  1 mph  none  0.00"  43%  52%  28°F  31°F  30.05"
Fri 05:00 AM  51.1°F  49°F  calm  1 mph  none  0.00"  47%  52%  31°F  31°F  30.05"
Fri 04:00 AM  53.2°F  49°F  calm  1 mph  3 mph  0.00"  46%  52%  32°F  31°F  30.04"
Fri 03:00 AM  50.2°F  49°F  calm  1 mph  2 mph  0.00"  51%  52%  32°F  32°F  30.06"
Fri 02:00 AM  52.0°F  49°F  1 mph E  1 mph  2 mph  0.00"  51%  52%  34°F  32°F  30.07"
Fri 01:00 AM  53.4°F  50°F  calm  1 mph  none  0.00"  49%  52%  34°F  32°F  30.08"
Fri 12:00 AM  54.7°F  50°F  calm  1 mph  none  0.00"  45%  52%  33°F  32°F  30.09"
Thu 11:00 PM  54.3°F  50°F  calm  1 mph  3 mph  0.00"  46%  52%  33°F  33°F  30.10"
Thu 10:00 PM  54.0°F  51°F  calm  1 mph  none  0.00"  47%  52%  33°F  33°F  30.12"
Thu 09:00 PM  53.8°F  51°F  calm  1 mph  none  0.00"  49%  51%  34°F  33°F  30.12"
Thu 08:00 PM  55.6°F  52°F  calm  1 mph  3 mph  0.00"  46%  50%  34°F  34°F  30.11"
Thu 07:00 PM  56.8°F  54°F  calm  1 mph  none  0.00"  44%  49%  34°F  34°F  30.09"
Thu 06:00 PM  61.3°F  56°F  calm  1 mph  7 mph  0.00"  35%  47%  32°F  35°F  30.09"

  1. Current weather data. No green row appears if the current weather data is also the high or low for the current day.
  2. High temperature for the current day.
  3. Low temperature for the current day.

The Hemet weather pages are a service of WeatherCurrents. Hemet, California is located in the San Jacinto Valley, in western Riverside County, at the foot of the San Jacinto mountains.
Copyright ©2020  WeatherCurrents. All rights reserved. - Submit questions and comments - Privacy Policy

This page automatically refreshes every 10 minutes.